Map

Track Data

SID SEASON NUMBER BASIN SUBBASIN NAME ISO_TIME NATURE LAT LON WMO_WIND WMO_PRES WMO_AGENCY TRACK_TYPE DIST2LAND LANDFALL IFLAG USA_AGENCY USA_ATCF_ID USA_LAT USA_LON USA_RECORD USA_STATUS USA_WIND USA_PRES USA_SSHS USA_R34_NE USA_R34_SE USA_R34_SW USA_R34_NW USA_R50_NE USA_R50_SE USA_R50_SW USA_R50_NW USA_R64_NE USA_R64_SE USA_R64_SW USA_R64_NW USA_POCI USA_ROCI USA_RMW USA_EYE TOKYO_LAT TOKYO_LON TOKYO_GRADE TOKYO_WIND TOKYO_PRES TOKYO_R50_DIR TOKYO_R50_LONG TOKYO_R50_SHORT TOKYO_R30_DIR TOKYO_R30_LONG TOKYO_R30_SHORT TOKYO_LAND CMA_LAT CMA_LON CMA_CAT CMA_WIND CMA_PRES HKO_LAT HKO_LON HKO_CAT HKO_WIND HKO_PRES NEWDELHI_LAT NEWDELHI_LON NEWDELHI_GRADE NEWDELHI_WIND NEWDELHI_PRES NEWDELHI_CI NEWDELHI_DP NEWDELHI_POCI REUNION_LAT REUNION_LON REUNION_TYPE REUNION_WIND REUNION_PRES REUNION_TNUM REUNION_CI REUNION_RMW REUNION_R34_NE REUNION_R34_SE REUNION_R34_SW REUNION_R34_NW REUNION_R50_NE REUNION_R50_SE REUNION_R50_SW REUNION_R50_NW REUNION_R64_NE REUNION_R64_SE REUNION_R64_SW REUNION_R64_NW BOM_LAT BOM_LON BOM_TYPE BOM_WIND BOM_PRES BOM_TNUM BOM_CI BOM_RMW BOM_R34_NE BOM_R34_SE BOM_R34_SW BOM_R34_NW BOM_R50_NE BOM_R50_SE BOM_R50_SW BOM_R50_NW BOM_R64_NE BOM_R64_SE BOM_R64_SW BOM_R64_NW BOM_ROCI BOM_POCI BOM_EYE BOM_POS_METHOD BOM_PRES_METHOD NADI_LAT NADI_LON NADI_CAT NADI_WIND NADI_PRES WELLINGTON_LAT WELLINGTON_LON WELLINGTON_WIND WELLINGTON_PRES DS824_LAT DS824_LON DS824_STAGE DS824_WIND DS824_PRES TD9636_LAT TD9636_LON TD9636_STAGE TD9636_WIND TD9636_PRES TD9635_LAT TD9635_LON TD9635_WIND TD9635_PRES TD9635_ROCI NEUMANN_LAT NEUMANN_LON NEUMANN_CLASS NEUMANN_WIND NEUMANN_PRES MLC_LAT MLC_LON MLC_CLASS MLC_WIND MLC_PRES USA_GUST BOM_GUST BOM_GUST_PER REUNION_GUST REUNION_GUST_PER USA_SEAHGT USA_SEARAD_NE USA_SEARAD_SE USA_SEARAD_SW USA_SEARAD_NW STORM_SPEED STORM_DIR
1989271N14168 1989 107 WP MM COLLEEN 1989-09-27 12:00:00 NR 14.0000 167.500 main 2579 2529 O_________O___ jtwc_wp WP281989 14.0000 167.500 20 -1 14.0000 167.500 1 20 12 260
1989271N14168 1989 107 WP MM COLLEEN 1989-09-27 15:00:00 NR 13.9007 166.904 main 2529 2487 P_________P___ WP281989 13.9003 166.890 20 -1 13.9011 166.918 1 20 12 260
1989271N14168 1989 107 WP MM COLLEEN 1989-09-27 18:00:00 NR 13.8006 166.320 main 2480 2439 O_________P___ jtwc_wp WP281989 13.8000 166.300 20 -1 13.8012 166.340 1 20 11 260
1989271N14168 1989 107 WP MM COLLEEN 1989-09-27 21:00:00 NR 13.7002 165.754 main 2439 2389 P_________P___ WP281989 13.6998 165.743 20 -1 13.7007 165.766 1 20 11 260
1989271N14168 1989 107 WP MM COLLEEN 1989-09-28 00:00:00 NR 13.6000 165.200 main 2389 2347 O_________O___ jtwc_wp WP281989 13.6000 165.200 20 -1 13.6000 165.200 1 20 11 259
1989271N14168 1989 107 WP MM COLLEEN 1989-09-28 03:00:00 NR 13.4997 164.647 main 2340 2299 P_________P___ WP281989 13.4999 164.650 20 -1 13.4996 164.643 1 20 11 259
1989271N14168 1989 107 WP MM COLLEEN 1989-09-28 06:00:00 NR 13.3997 164.096 main 2299 2258 O_________P___ jtwc_wp WP281989 13.4000 164.100 20 -1 13.3994 164.093 1 20 11 259
1989271N14168 1989 107 WP MM COLLEEN 1989-09-28 09:00:00 NR 13.2997 163.548 main 2252 2212 P_________P___ WP281989 13.2999 163.550 20 -1 13.2996 163.546 1 20 11 259
1989271N14168 1989 107 WP MM COLLEEN 1989-09-28 12:00:00 NR 13.2000 163.000 main 2212 2173 O_________O___ jtwc_wp WP281989 13.2000 163.000 20 -1 13.2000 163.000 1 20 11 259
1989271N14168 1989 107 WP MM COLLEEN 1989-09-28 15:00:00 NR 13.0999 162.444 main 2167 2128 P_________P___ WP281989 13.0999 162.450 20 -1 13.0998 162.438 1 20 11 260
1989271N14168 1989 107 WP MM COLLEEN 1989-09-28 18:00:00 NR 12.9999 161.889 main 2128 2090 O_________P___ jtwc_wp WP281989 13.0000 161.900 20 -1 12.9998 161.878 1 20 11 260
1989271N14168 1989 107 WP MM COLLEEN 1989-09-28 21:00:00 NR 12.8999 161.336 main 2084 2047 P_________P___ WP281989 12.8999 161.343 20 -1 12.8999 161.329 1 20 11 259
1989271N14168 1989 107 WP MM COLLEEN 1989-09-29 00:00:00 NR 12.8000 160.800 main 2047 2010 O_________O___ jtwc_wp WP281989 12.8000 160.800 20 -1 12.8000 160.800 1 20 10 259
1989271N14168 1989 107 WP MM COLLEEN 1989-09-29 03:00:00 NR 12.6997 160.292 main 2010 1974 P_________P___ WP281989 12.6999 160.285 20 -1 12.6996 160.300 1 20 10 258
1989271N14168 1989 107 WP MM COLLEEN 1989-09-29 06:00:00 NR 12.5997 159.810 main 1974 1943 O_________P___ jtwc_wp WP281989 12.6000 159.800 20 -1 12.5995 159.820 1 20 9 258
1989271N14168 1989 107 WP MM COLLEEN 1989-09-29 09:00:00 NR 12.4998 159.349 main 1939 1909 P_________P___ WP281989 12.4999 159.343 20 -1 12.4997 159.356 1 20 9 257
1989271N14168 1989 107 WP MM COLLEEN 1989-09-29 12:00:00 NR 12.4000 158.900 main 1909 1879 O_________O___ jtwc_wp WP281989 12.4000 158.900 20 -1 12.4000 158.900 1 20 9 257
1989271N14168 1989 107 WP MM COLLEEN 1989-09-29 15:00:00 NR 12.2957 158.448 main 1874 1844 P_________P___ WP281989 12.2999 158.450 20 -1 12.2915 158.447 1 20 9 257
1989271N14168 1989 107 WP MM COLLEEN 1989-09-29 18:00:00 NR 12.1923 158.000 main 1844 1816 O_________P___ jtwc_wp WP281989 12.2000 158.000 20 -1 12.1846 158.000 1 20 9 257
1989271N14168 1989 107 WP MM COLLEEN 1989-09-29 21:00:00 NR 12.0889 157.552 main 1816 1784 P_________P___ WP281989 12.0924 157.550 20 -1 12.0853 157.553 1 20 9 258
1989271N14168 1989 107 WP MM COLLEEN 1989-09-30 00:00:00 NR 12.0000 157.100 main 1784 1757 O_________O___ jtwc_wp WP281989 12.0000 157.100 20 -1 12.0000 157.100 1 20 9 260
1989271N14168 1989 107 WP MM COLLEEN 1989-09-30 03:00:00 NR 11.9389 156.647 main 1753 1737 P_________P___ WP281989 11.9424 156.658 20 -1 11.9354 156.636 1 20 9 263
1989271N14168 1989 107 WP MM COLLEEN 1989-09-30 06:00:00 NR 11.8923 156.183 main 1737 1709 O_________P___ jtwc_wp WP281989 11.9000 156.200 20 -1 11.8847 156.165 1 20 9 264
1989271N14168 1989 107 WP MM COLLEEN 1989-09-30 09:00:00 NR 11.8458 155.697 main 1709 1692 P_________P___ WP281989 11.8499 155.708 20 -1 11.8416 155.686 1 20 10 265
1989271N14168 1989 107 WP MM COLLEEN 1989-09-30 12:00:00 NR 11.8000 155.200 main 1692 1678 O_________O___ jtwc_wp WP281989 11.8000 155.200 20 -1 11.8000 155.200 1 20 10 264
1989271N14168 1989 107 WP MM COLLEEN 1989-09-30 15:00:00 NR 11.7479 154.702 main 1667 1654 P_________P___ WP281989 11.7499 154.700 20 -1 11.7458 154.703 1 21 10 264
1989271N14168 1989 107 WP MM COLLEEN 1989-09-30 18:00:00 NR 11.6962 154.200 main 1654 1631 O_________P___ jtwc_wp WP281989 11.7000 154.200 20 -1 11.6923 154.200 1 22 10 264
1989271N14168 1989 107 WP MM COLLEEN 1989-09-30 21:00:00 NR 11.6463 153.698 main 1631 1631 P_________P___ WP281989 11.6499 153.700 22 -1 11.6427 153.697 1 23 9 274
1989271N14168 1989 107 WP MM COLLEEN 1989-10-01 00:00:00 TS 11.7556 153.289 1004 tokyo main 1646 1639 OO________O___ jtwc_wp WP281989 11.6000 153.200 25 -1 13.0000 154.000 2 1004 0 0 0 11.6000 153.200 1 25 8 284
1989271N14168 1989 107 WP MM COLLEEN 1989-10-01 03:00:00 TS 11.8411 152.872 main 1639 1638 PP________P___ WP281989 11.5425 152.692 25 -1 13.0100 153.533 2 1004 0 0 11.5553 152.722 1 25 9 281
1989271N14168 1989 107 WP MM COLLEEN 1989-10-01 06:00:00 TS 11.9162 152.436 1004 tokyo main 1644 1643 OO________P___ jtwc_wp WP281989 11.5000 152.200 25 -1 13.0000 153.000 2 1004 0 0 0 11.5195 152.250 1 25 9 279
1989271N14168 1989 107 WP MM COLLEEN 1989-10-01 09:00:00 TS 11.9764 151.969 main 1651 1632 PP________P___ WP281989 11.4849 151.750 25 -1 12.9452 152.378 2 1004 0 0 11.4990 151.778 1 25 10 271
1989271N14168 1989 107 WP MM COLLEEN 1989-10-01 12:00:00 TS 11.9333 151.467 1004 tokyo main 1632 1618 OO________O___ jtwc_wp WP281989 11.5000 151.300 25 -1 12.8000 151.800 2 1004 0 0 0 11.5000 151.300 1 25 9 262
1989271N14168 1989 107 WP MM COLLEEN 1989-10-01 15:00:00 TS 11.8512 151.011 main 1618 1583 PP________P___ WP281989 11.5425 150.808 27 -1 12.5071 151.443 2 1002 0 0 11.5041 150.783 1 27 10 258
1989271N14168 1989 107 WP MM COLLEEN 1989-10-01 18:00:00 TS 11.7236 150.468 1000 tokyo main 1583 1570 OOOO______P___ jtwc_wp WP281989 11.6000 150.300 30 -1 12.2000 151.100 2 1000 0 0 0 11.5000 150.000 1 29 1000 11.3000 149.900 TD 25 1000 11.5327 150.262 1 30 11 261
1989271N14168 1989 107 WP MM COLLEEN 1989-10-01 21:00:00 TS 11.6787 149.919 main 1570 1561 PPPP______P___ WP281989 11.6350 149.792 32 -1 11.9976 150.572 2 999 0 0 11.5900 149.615 1 33 997 11.3851 149.485 TD 27 997 11.5948 149.761 1 32 10 269
1989271N14168 1989 107 WP MM COLLEEN 1989-10-02 00:00:00 TS 11.7111 149.406 35 998 tokyo main 1561 1558 OOOO______O___ jtwc_wp WP281989 11.7000 149.300 35 0 11.9000 150.000 3 35 998 0 9 60 60 0 11.7000 149.200 2 38 995 11.5000 149.100 TD 30 995 11.7000 149.300 2 35 10 278
1989271N14168 1989 107 WP MM COLLEEN 1989-10-02 03:00:00 TS 11.8072 148.928 main 1566 1565 PPPP______P___ WP281989 11.8200 148.813 35 0 11.8751 149.440 3 37 997 0 9 60 60 11.8425 148.743 2 38 995 11.6700 148.770 TD 30 995 11.8282 148.874 2 35 9 288
1989271N14168 1989 107 WP MM COLLEEN 1989-10-02 06:00:00 TS 11.9805 148.539 40 996 tokyo main 1584 1583 OOOO______P___ jtwc_wp WP281989 12.0000 148.400 35 0 12.0000 149.000 3 40 996 0 9 60 60 0 12.0000 148.300 2 38 995 11.9000 148.500 TD 30 995 12.0023 148.495 2 35 8 301
1989271N14168 1989 107 WP MM COLLEEN 1989-10-02 09:00:00 TS 12.2125 148.251 main 1605 1604 PPPP______P___ WP281989 12.2274 148.112 35 0 12.2973 148.812 3 42 994 0 9 65 65 12.1425 147.898 2 38 995 12.1700 148.263 TD 32 992 12.2252 148.168 2 35 7 317
1989271N14168 1989 107 WP MM COLLEEN 1989-10-02 12:00:00 TS 12.5000 148.040 45 992 tokyo main 1637 1637 OOOO______O___ jtwc_wp WP281989 12.5000 147.900 35 0 12.7000 148.700 3 45 992 0 9 70 70 0 12.3000 147.600 2 38 995 12.5000 148.100 TS 35 990 12.5000 147.900 2 35 7 326
1989271N14168 1989 107 WP MM COLLEEN 1989-10-02 15:00:00 TS 12.7840 147.861 main 1670 1669 PPPP______P___ WP281989 12.7700 147.677 37 0 13.0926 148.450 3 45 991 0 9 75 75 12.4024 147.447 2 38 995 12.8550 148.027 TS 35 990 12.8000 147.700 2 37 7 335
1989271N14168 1989 107 WP MM COLLEEN 1989-10-02 18:00:00 TS 13.1504 147.731 45 990 tokyo main 1714 1714 OOOO______P___ jtwc_wp WP281989 13.1000 147.500 40 0 13.5000 148.200 3 45 990 0 9 80 80 0 12.7000 147.400 2 38 995 13.3000 148.000 TS 35 990 13.1522 147.554 2 40 9 347
1989271N14168 1989 107 WP MM COLLEEN 1989-10-02 21:00:00 TS 13.6521 147.658 main 1770 1770 PPPP______P___ WP281989 13.5125 147.385 42 0 13.8774 148.057 3 47 987 0 9 90 90 13.4474 147.444 2 43 992 13.8700 147.972 TS 37 990 13.5532 147.431 2 42 11 351
1989271N14168 1989 107 WP MM COLLEEN 1989-10-03 00:00:00 TS 14.2200 147.560 50 985 tokyo main 1826 1826 OOOO______O___ jtwc_wp WP281989 14.0000 147.300 45 0 14.3000 147.900 4 50 985 0 9 100 100 0 14.3000 147.400 3 48 990 14.5000 147.900 TS 40 990 14.0000 147.300 2 45 12 345
1989271N14168 1989 107 WP MM COLLEEN 1989-10-03 03:00:00 TS 14.7837 147.344 main 1893 1893 PPPP______P___ WP281989 14.5424 147.230 45 0 14.8501 147.608 4 52 982 0 9 100 100 14.9102 147.031 3 48 987 15.1300 147.730 TS 40 990 14.4859 147.122 2 46 12 337
1989271N14168 1989 107 WP MM COLLEEN 1989-10-03 06:00:00 TS 15.3225 147.086 55 980 tokyo main 1949 1949 OOOO______P___ jtwc_wp WP281989 15.1000 147.100 45 0 15.4000 147.300 4 55 980 9 30 30 9 100 100 0 15.4000 146.600 3 48 985 15.7000 147.500 TS 40 990 15.0125 146.930 2 47 11 335
1989271N14168 1989 107 WP MM COLLEEN 1989-10-03 09:00:00 TS 15.7835 146.856 main 2005 2005 PPPP______P___ WP281989 15.6000 146.830 47 0 15.8149 147.085 4 57 977 9 40 40 9 112 112 15.8074 146.370 3 48 982 16.1374 147.272 TS 42 987 15.5578 146.722 2 48 10 333
1989271N14168 1989 107 WP MM COLLEEN 1989-10-03 12:00:00 TS 16.2200 146.620 60 975 tokyo main 2049 2049 OOOO______O___ jtwc_wp WP281989 16.1000 146.500 50 0 16.2000 146.900 4 60 975 9 50 50 9 125 125 0 16.2000 146.200 3 48 980 16.5000 147.000 TS 45 985 16.1000 146.500 2 50 10 333
1989271N14168 1989 107 WP MM COLLEEN 1989-10-03 15:00:00 TS 16.6973 146.361 main 2106 2081 PPPP______P___ WP281989 16.6575 146.185 52 0 16.6500 146.707 4 60 975 9 50 50 9 150 150 16.6925 146.000 3 53 977 16.8575 146.657 TS 47 982 16.6290 146.253 2 52 11 332
1989271N14168 1989 107 WP MM COLLEEN 1989-10-03 18:00:00 TS 17.1696 146.099 60 975 tokyo main 2070 2021 OOOO______P___ jtwc_wp WP281989 17.2000 145.900 55 0 17.1000 146.500 4 60 975 9 50 50 9 175 175 0 17.2000 145.800 3 58 975 17.2000 146.300 STS 50 980 17.1478 145.993 2 55 10 332
1989271N14168 1989 107 WP MM COLLEEN 1989-10-03 21:00:00 TS 17.6075 145.851 main 2021 1969 PPPP______P___ WP281989 17.6724 145.685 57 0 17.4999 146.272 4 60 975 9 50 50 9 175 175 17.6725 145.578 3 63 972 17.5499 145.985 STS 52 977 17.6426 145.737 2 57 10 332
1989271N14168 1989 107 WP MM COLLEEN 1989-10-04 00:00:00 TS 18.0200 145.620 60 975 tokyo main 1969 1920 OOOO______O___ jtwc_wp WP281989 18.1000 145.500 60 0 17.9000 146.000 4 60 975 9 50 50 9 175 175 0 18.1000 145.400 4 68 970 17.9000 145.700 STS 55 975 18.1000 145.500 2 60 9 332
1989271N14168 1989 107 WP MM COLLEEN 1989-10-04 03:00:00 TS 18.4211 145.401 main 1920 1872 PPPP______P___ WP281989 18.5150 145.292 62 0 18.3576 145.643 4 62 972 9 62 62 9 175 175 18.4649 145.350 4 68 970 18.2500 145.435 STS 57 972 18.5179 145.287 2 62 9 333
1989271N14168 1989 107 WP MM COLLEEN 1989-10-04 06:00:00 TS 18.8000 145.200 65 970 tokyo main 1872 1834 OOOO______O___ jtwc_wp WP281989 18.9000 145.100 65 1 18.8000 145.300 5 65 970 9 75 75 9 175 175 0 18.8000 145.300 4 68 970 18.6000 145.200 STS 60 970 18.9000 145.100 3 65 8 333
1989271N14168 1989 107 WP MM COLLEEN 1989-10-04 09:00:00 TS 19.1606 145.006 main 1823 1785 PPPP______P___ WP281989 19.2650 144.935 67 1 19.1724 145.062 5 67 967 9 75 75 9 175 175 19.1501 145.115 4 68 970 18.9500 144.985 STS 60 970 19.2655 144.934 3 67 8 334
1989271N14168 1989 107 WP MM COLLEEN 1989-10-04 12:00:00 TS 19.5000 144.840 70 965 tokyo main 1785 1750 OOOO______O___ jtwc_wp WP281989 19.6000 144.800 70 1 19.5000 144.900 5 70 965 9 75 75 9 175 175 0 19.5000 144.900 4 68 970 19.3000 144.800 STS 60 970 19.6000 144.800 4 70 7 337
1989271N14168 1989 107 WP MM COLLEEN 1989-10-04 15:00:00 TS 19.8277 144.710 main 1750 1715 PPPP______P___ WP281989 19.9150 144.685 72 1 19.8075 144.785 5 72 962 9 75 75 9 175 175 19.8650 144.735 4 72 967 19.6500 144.635 STS 65 967 19.9009 144.709 4 71 7 341
1989271N14168 1989 107 WP MM COLLEEN 1989-10-04 18:00:00 TS 20.1347 144.609 75 960 tokyo main 1715 1680 OOOO______P___ jtwc_wp WP281989 20.2000 144.600 75 1 20.1000 144.700 5 75 960 9 75 75 9 175 175 0 20.2000 144.600 4 77 965 20.0000 144.500 T 70 965 20.1737 144.646 4 72 6 344
1989271N14168 1989 107 WP MM COLLEEN 1989-10-04 21:00:00 TS 20.4184 144.528 main 1680 1645 PPPP______P___ WP281989 20.4575 144.557 75 1 20.3925 144.607 5 75 957 9 77 77 9 175 175 20.4500 144.500 4 77 962 20.3575 144.392 T 72 962 20.4347 144.585 4 73 6 344
1989271N14168 1989 107 WP MM COLLEEN 1989-10-05 00:00:00 TS 20.7000 144.440 75 955 tokyo main 1645 1610 OOOO______O___ jtwc_wp WP281989 20.7000 144.500 75 1 20.7000 144.500 5 75 955 9 80 80 9 175 175 0 20.7000 144.400 4 77 960 20.7000 144.300 T 75 960 20.7000 144.500 4 75 6 341
1989271N14168 1989 107 WP MM COLLEEN 1989-10-05 03:00:00 TS 20.9985 144.314 main 1610 1575 PPPP______P___ WP281989 20.9350 144.372 75 1 21.0425 144.357 5 77 952 9 90 90 9 225 225 21.0425 144.258 4 77 960 21.0000 144.207 T 75 960 20.9724 144.374 4 76 7 337
1989271N14168 1989 107 WP MM COLLEEN 1989-10-05 06:00:00 TS 21.3110 144.163 80 950 tokyo main 1575 1537 OOOO______P___ jtwc_wp WP281989 21.2000 144.200 75 1 21.4000 144.200 5 80 950 9 100 100 9 275 275 0 21.4000 144.100 4 77 960 21.3000 144.100 T 75 960 21.2548 144.217 4 77 7 336
1989271N14168 1989 107 WP MM COLLEEN 1989-10-05 09:00:00 TS 21.6314 144.007 main 1537 1488 PPPP______P___ WP281989 21.5274 144.022 77 1 21.7424 144.065 5 80 950 9 100 100 9 275 275 21.7000 143.950 4 77 960 21.6275 143.972 T 77 957 21.5598 144.026 4 78 7 334
1989271N14168 1989 107 WP MM COLLEEN 1989-10-05 12:00:00 TS 21.9800 143.820 80 950 tokyo main 1488 1450 OOOO______O___ jtwc_wp WP281989 21.9000 143.800 80 1 22.1000 143.900 5 80 950 9 100 100 9 275 275 0 22.0000 143.800 4 77 960 22.0000 143.800 T 80 955 21.9000 143.800 4 80 8 333
1989271N14168 1989 107 WP MM COLLEEN 1989-10-05 15:00:00 TS 22.3649 143.608 main 1439 1387 PPPP______P___ WP281989 22.2850 143.515 77 1 22.4773 143.695 5 80 950 9 100 100 9 262 262 22.3348 143.695 4 77 960 22.4424 143.587 T 77 957 22.2850 143.548 4 78 9 331
1989271N14168 1989 107 WP MM COLLEEN 1989-10-05 18:00:00 TS 22.7810 143.332 80 950 tokyo main 1387 1336 OOOO______P___ jtwc_wp WP281989 22.7000 143.200 75 1 22.9000 143.400 5 80 950 9 100 100 9 250 250 0 22.7000 143.500 4 77 960 22.9000 143.300 T 75 960 22.7049 143.260 4 77 10 326
1989271N14168 1989 107 WP MM COLLEEN 1989-10-05 21:00:00 TS 23.2104 142.978 main 1336 1278 PPPP______P___ WP281989 23.1349 142.915 75 1 23.4074 143.003 5 80 950 9 100 100 9 250 250 23.0626 143.102 4 77 960 23.3000 142.930 T 70 962 23.1474 142.941 4 76 11 321
1989271N14168 1989 107 WP MM COLLEEN 1989-10-06 00:00:00 TS 23.6600 142.560 80 950 tokyo main 1269 1205 OOOO______O___ jtwc_wp WP281989 23.6000 142.600 75 1 23.9000 142.500 5 80 950 9 100 100 9 250 250 0 23.5000 142.600 4 77 960 23.7000 142.500 T 65 965 23.6000 142.600 4 75 12 318
1989271N14168 1989 107 WP MM COLLEEN 1989-10-06 03:00:00 TS 24.1337 142.083 main 1205 1131 PPPP______P___ WP281989 24.1076 142.208 75 1 24.2729 141.877 5 80 950 9 100 100 9 250 250 24.1076 142.086 4 77 960 24.1576 142.043 T 67 962 24.0231 142.202 4 75 13 317
1989271N14168 1989 107 WP MM COLLEEN 1989-10-06 06:00:00 TS 24.5912 141.618 80 950 tokyo main 1131 1087 OOOO______P___ jtwc_wp WP281989 24.6000 141.800 75 1 24.6000 141.300 5 80 950 9 100 100 9 250 250 0 24.7000 141.600 4 77 960 24.6000 141.600 T 70 960 24.4559 141.791 4 75 11 317
1989271N14168 1989 107 WP MM COLLEEN 1989-10-06 09:00:00 TS 24.9690 141.234 main 1073 1034 PPPP______P___ WP281989 24.9999 141.435 75 1 24.9197 140.917 5 80 950 9 100 100 9 250 250 25.0649 141.197 4 77 960 24.9499 141.212 T 70 960 24.9106 141.409 4 75 10 321
1989271N14168 1989 107 WP MM COLLEEN 1989-10-06 12:00:00 TS 25.3600 140.940 80 950 tokyo main 1019 970 OOOO______O___ jtwc_wp WP281989 25.4000 141.100 75 1 25.3000 140.700 5 80 950 9 100 100 9 250 250 0 25.4000 140.900 4 77 960 25.3000 140.900 T 70 960 25.4000 141.100 4 75 10 330
1989271N14168 1989 107 WP MM COLLEEN 1989-10-06 15:00:00 TS 25.8399 140.686 main 970 917 PPPP______P___ WP281989 25.8626 140.733 75 1 25.8424 140.582 5 80 950 9 100 100 9 250 250 25.8849 140.675 4 77 960 25.7124 140.625 T 70 960 25.8974 140.815 4 73 11 341
1989271N14168 1989 107 WP MM COLLEEN 1989-10-06 18:00:00 TS 26.3671 140.564 80 950 tokyo main 907 868 OOOO______P___ jtwc_wp WP281989 26.4000 140.500 75 1 26.4000 140.600 5 80 950 9 100 100 9 250 250 0 26.4000 140.600 4 77 960 26.2000 140.500 T 70 960 26.4357 140.621 4 72 10 356
1989271N14168 1989 107 WP MM COLLEEN 1989-10-06 21:00:00 TS 26.8611 140.598 main 859 822 PPPP______P___ WP281989 27.0047 140.495 72 1 26.7399 140.691 5 80 950 9 100 100 9 250 250 26.7824 140.683 4 72 965 26.7473 140.553 T 70 960 27.0312 140.567 4 71 11 11
1989271N14168 1989 107 WP MM COLLEEN 1989-10-07 00:00:00 TS 27.4600 140.800 80 950 tokyo main 813 743 OOOO______O___ jtwc_wp WP281989 27.7000 140.700 70 1 27.2000 140.900 5 80 950 9 100 100 9 250 250 0 27.3000 140.900 4 68 970 27.4000 140.800 T 70 960 27.7000 140.700 4 70 15 17
1989271N14168 1989 107 WP MM COLLEEN 1989-10-07 03:00:00 TS 28.2529 141.086 main 735 664 PPPP______P___ WP281989 28.4696 141.003 70 1 28.0747 141.176 5 80 950 9 100 100 9 250 250 28.1970 141.118 4 68 970 28.1623 141.168 T 70 960 28.3608 140.963 4 70 18 21
1989271N14168 1989 107 WP MM COLLEEN 1989-10-07 06:00:00 TS 29.1409 141.546 80 950 tokyo main 664 594 OOOO______P___ jtwc_wp WP281989 29.3000 141.500 70 1 29.1000 141.600 5 80 950 9 100 100 9 250 250 0 29.2000 141.500 4 68 970 29.0000 141.700 T 70 960 29.1046 141.429 4 70 20 29
1989271N14168 1989 107 WP MM COLLEEN 1989-10-07 09:00:00 TS 29.9605 142.151 main 587 535 PPPP______P___ WP281989 30.0890 142.134 70 1 29.9764 142.133 5 80 950 9 100 100 9 250 250 29.9691 142.076 4 68 970 29.7966 142.306 T 70 960 29.9712 142.105 4 70 21 36
1989271N14168 1989 107 WP MM COLLEEN 1989-10-07 12:00:00 TS 30.8800 142.980 80 950 tokyo main 531 489 OOOO______O___ jtwc_wp WP281989 31.0000 143.000 70 1 30.9000 142.900 5 80 950 9 100 100 9 250 250 0 30.8000 142.900 4 68 970 30.7000 143.100 T 70 960 31.0000 143.000 4 70 25 39
1989271N14168 1989 107 WP MM COLLEEN 1989-10-07 15:00:00 TS 31.9262 143.997 main 496 481 PPPP______P___ WP281989 32.0943 144.084 70 1 31.9161 143.905 5 77 952 9 90 90 9 250 250 31.8214 143.921 4 68 970 31.7515 144.085 T 67 962 32.0477 143.987 4 70 30 40
1989271N14168 1989 107 WP MM COLLEEN 1989-10-07 18:00:00 TS 33.1742 145.263 75 955 tokyo main 489 489 OOOO______P___ jtwc_wp WP281989 33.4000 145.400 70 1 33.1000 145.200 5 75 955 9 80 80 9 250 250 0 33.1000 145.200 4 68 970 33.0000 145.300 T 65 965 33.2709 145.214 4 70 35 40
1989271N14168 1989 107 WP MM COLLEEN 1989-10-07 21:00:00 TS 34.6060 146.710 main 540 540 PPPP______P___ WP281989 34.8326 146.785 70 1 34.4283 146.717 5 75 957 9 140 115 9 425 300 34.6645 146.649 4 68 970 34.3714 146.696 T 65 965 34.7332 146.704 4 70 41 40
1989271N14168 1989 107 WP MM COLLEEN 1989-10-08 00:00:00 TS 36.2947 148.447 75 960 tokyo main 648 648 OOOO______O___ jtwc_wp WP281989 36.5000 148.500 70 1 36.0000 148.500 5 75 960 1 200 150 1 600 350 0 36.4000 148.400 4 68 970 36.0000 148.300 T 65 965 36.5000 148.500 4 70 47 41
1989271N14168 1989 107 WP MM COLLEEN 1989-10-08 03:00:00 TS 38.1472 150.522 main 705 661 PPPP______P___ WP281989 38.2614 150.708 70 1 37.7987 150.463 5 72 962 1 225 150 1 600 350 38.0318 150.486 4 68 970 37.9235 150.074 T 60 970 38.6089 150.654 4 68 52 42
1989271N14168 1989 107 WP MM COLLEEN 1989-10-08 06:00:00 TS 40.1953 152.903 70 965 tokyo main 654 588 OOOO______P___ jtwc_wp WP281989 40.4000 153.300 70 1 39.8000 152.700 5 70 965 2 250 150 2 600 350 0 39.8000 152.800 4 68 970 40.0000 152.000 STS 55 975 40.9781 153.182 4 67 57 43
1989271N14168 1989 107 WP MM COLLEEN 1989-10-08 09:00:00 TS 42.3436 155.637 main 588 584 PPP_______P___ WP281989 43.0649 156.148 67 1 41.6682 155.386 5 65 970 2 250 150 2 600 350 41.8312 155.191 4 68 970 STS 43.4854 156.075 4 66 59 42
1989271N14168 1989 107 WP MM COLLEEN 1989-10-08 12:00:00 TS 44.5714 158.329 60 975 tokyo main 636 444 OOO_______O___ jtwc_wp WP281989 46.0000 159.300 65 1 44.0000 158.000 4 60 975 2 250 150 1 600 350 0 44.0000 157.700 4 68 970 46.0000 159.300 4 65 61 32
1989271N14168 1989 107 WP MM COLLEEN 1989-10-08 15:00:00 TS 47.5084 160.150 main 428 281 _P____________ WP281989 -1 47.5084 160.150 4 975 2 1 4 4 69 21
1989271N14168 1989 107 WP MM COLLEEN 1989-10-08 18:00:00 ET 51.0000 162.000 976 tokyo main 266 190 _O____________ -1 51.0000 162.000 6 976 0 0 0 4 62 21
1989271N14168 1989 107 WP MM COLLEEN 1989-10-08 21:00:00 ET 53.3306 163.679 main 185 155 _P____________ -1 53.3306 163.679 6 972 0 0 4 44 24
1989271N14168 1989 107 WP MM COLLEEN 1989-10-09 00:00:00 ET 55.0000 165.000 968 tokyo main 165 141 _O____________ -1 55.0000 165.000 6 968 0 0 0 34 24
1989271N14168 1989 107 WP MM COLLEEN 1989-10-09 03:00:00 ET 56.4335 166.094 main 167 167 _P____________ -1 56.4335 166.094 6 966 0 0 27 24
1989271N14168 1989 107 WP MM COLLEEN 1989-10-09 06:00:00 ET 57.5000 167.000 964 tokyo main 208 190 _O____________ -1 57.5000 167.000 6 964 0 0 0 21 27
1989271N14168 1989 107 WP MM COLLEEN 1989-10-09 09:00:00 ET 58.2792 167.807 main 186 126 _P____________ -1 58.2792 167.807 6 962 0 0 18 35
1989271N14168 1989 107 WP MM COLLEEN 1989-10-09 12:00:00 ET 59.0000 169.000 960 tokyo main 123 24 _O____________ -1 59.0000 169.000 6 960 0 0 0 24 46
1989271N14168 1989 107 WP MM COLLEEN 1989-10-09 15:00:00 ET 59.9436 171.142 main 44 39 _P____________ -1 59.9436 171.142 6 964 0 0 32 51
1989271N14168 1989 107 WP MM COLLEEN 1989-10-09 18:00:00 ET 61.0000 174.000 968 tokyo main 57 _O____________ -1 61.0000 174.000 6 968 0 0 0 35 53

Digital Typhoon Data and Search

About IBTrACS Database

This database is a web-friendly format of International Best Track Archive for Climate Stewardship (IBTrACS), a global best track data archive curated by NOAA dating back to 1842.

Updated: 2021-12-01